createdAt,value
2023-04-15T00:01:05.978Z,99372.63
2023-04-15T00:06:07.650Z,99369.88
2023-04-15T00:11:09.197Z,99364.69
2023-04-15T00:16:10.964Z,99356.97
2023-04-15T00:21:12.478Z,99349.97
2023-04-15T00:26:14.220Z,99347.63
2023-04-15T00:31:16.307Z,99340.47
2023-04-15T00:36:17.696Z,99344.22
2023-04-15T00:41:19.478Z,99344.22
2023-04-15T00:46:21.421Z,99350.03
2023-04-15T00:51:23.422Z,99354.75
2023-04-15T00:56:25.851Z,99337.44
2023-04-15T01:01:28.807Z,99333.22
2023-04-15T01:06:33.499Z,99330.41
2023-04-15T01:11:35.617Z,99335.53
2023-04-15T01:16:39.816Z,99335.00
2023-04-15T01:21:41.603Z,99329.41
2023-04-15T01:26:44.557Z,99322.28
2023-04-15T01:31:53.670Z,99308.03
2023-04-15T01:36:55.575Z,99296.66
2023-04-15T01:41:57.505Z,99314.75
2023-04-15T01:46:59.336Z,99309.41
2023-04-15T01:52:01.595Z,99305.22
2023-04-15T01:57:03.620Z,99303.25
2023-04-15T02:02:05.550Z,99305.38
2023-04-15T02:07:07.129Z,99302.19
2023-04-15T02:12:10.184Z,99292.38
2023-04-15T02:17:11.633Z,99288.22
2023-04-15T02:22:18.200Z,99284.72
2023-04-15T02:27:22.462Z,99287.63
2023-04-15T02:32:25.146Z,99277.44
2023-04-15T02:37:30.460Z,99279.34
2023-04-15T02:42:32.847Z,99273.53
2023-04-15T02:47:36.324Z,99285.00
2023-04-15T02:52:41.637Z,99281.84
2023-04-15T02:57:43.799Z,99284.06
2023-04-15T03:02:47.018Z,99284.41
2023-04-15T03:07:48.645Z,99281.34
2023-04-15T03:12:50.341Z,99279.53
2023-04-15T03:17:54.172Z,99273.34
2023-04-15T03:22:55.664Z,99264.72
2023-04-15T03:28:00.689Z,99271.00
2023-04-15T03:33:02.347Z,99256.00
2023-04-15T03:38:04.097Z,99255.94
2023-04-15T03:43:05.700Z,99265.50
2023-04-15T03:48:17.323Z,99259.59
2023-04-15T03:53:21.371Z,99264.25
2023-04-15T03:58:22.905Z,99261.03
2023-04-15T04:03:24.527Z,99251.47
2023-04-15T04:08:27.490Z,99243.75
2023-04-15T04:13:28.965Z,99243.28
2023-04-15T04:18:34.342Z,99243.84
2023-04-15T04:23:35.766Z,99240.25
2023-04-15T04:28:37.290Z,99244.47
2023-04-15T04:33:39.904Z,99254.88
2023-04-15T04:38:41.403Z,99252.91
2023-04-15T04:43:42.835Z,99252.44
2023-04-15T04:48:46.617Z,99253.13
2023-04-15T04:53:48.692Z,99257.03
2023-04-15T04:58:50.164Z,99259.84
2023-04-15T05:03:51.769Z,99252.78
2023-04-15T05:08:53.337Z,99245.81
2023-04-15T05:13:54.798Z,99249.97
2023-04-15T05:18:56.701Z,99256.28
2023-04-15T05:23:58.071Z,99255.06
2023-04-15T05:29:05.810Z,99260.84
2023-04-15T05:34:12.941Z,99254.66
2023-04-15T05:39:14.497Z,99268.22
2023-04-15T05:44:16.289Z,99265.81
2023-04-15T05:49:17.887Z,99270.38
2023-04-15T05:54:23.388Z,99272.03
2023-04-15T05:59:25.138Z,99278.19
2023-04-15T06:04:29.650Z,99291.41
2023-04-15T06:09:31.331Z,99288.75
2023-04-15T06:14:32.982Z,99286.34
2023-04-15T06:19:38.657Z,99288.00
2023-04-15T06:24:42.712Z,99295.13
2023-04-15T06:29:44.912Z,99303.06
2023-04-15T06:34:46.297Z,99308.44
2023-04-15T06:39:47.892Z,99314.22
2023-04-15T06:44:49.743Z,99315.34
2023-04-15T06:49:51.925Z,99312.00
2023-04-15T06:54:53.407Z,99317.59
2023-04-15T06:59:54.973Z,99317.25
2023-04-15T07:04:56.934Z,99315.13
2023-04-15T07:09:58.446Z,99326.63
2023-04-15T07:14:59.927Z,99331.78
2023-04-15T07:20:01.499Z,99334.59
2023-04-15T07:25:03.185Z,99338.47
2023-04-15T07:30:09.426Z,99348.16
2023-04-15T07:35:11.803Z,99353.56
2023-04-15T07:40:16.126Z,99351.72
2023-04-15T07:45:17.610Z,99348.53
2023-04-15T07:50:19.773Z,99362.31
2023-04-15T07:55:23.315Z,99352.72
2023-04-15T08:00:24.833Z,99364.34
2023-04-15T08:05:26.262Z,99366.81
2023-04-15T08:10:30.035Z,99381.63
2023-04-15T08:15:32.921Z,99383.00
2023-04-15T08:20:34.502Z,99383.16
2023-04-15T08:25:40.752Z,99391.63
2023-04-15T08:30:44.672Z,99398.78
2023-04-15T08:35:46.768Z,99408.88
2023-04-15T08:40:48.527Z,99407.72
2023-04-15T08:45:52.173Z,99411.78
2023-04-15T08:50:53.809Z,99415.31
2023-04-15T08:55:59.874Z,99413.69
2023-04-15T09:01:01.648Z,99427.63
2023-04-15T09:06:05.867Z,99431.34
2023-04-15T09:11:07.329Z,99421.59
2023-04-15T09:16:09.336Z,99427.06
2023-04-15T09:21:13.129Z,99439.78
2023-04-15T09:26:16.963Z,99449.66
2023-04-15T09:31:29.429Z,99451.94
2023-04-15T09:36:51.803Z,99449.06
2023-04-15T09:42:07.085Z,99455.59
2023-04-15T09:47:08.526Z,99456.97
2023-04-15T09:52:13.957Z,99463.75
2023-04-15T09:57:15.762Z,99468.97
2023-04-15T10:02:20.793Z,99474.47
2023-04-15T10:08:14.203Z,99479.59
2023-04-15T10:13:24.618Z,99486.06
2023-04-15T10:18:28.187Z,99487.75
2023-04-15T10:23:30.441Z,99487.41
2023-04-15T10:28:32.146Z,99497.19
2023-04-15T10:33:34.651Z,99501.84
2023-04-15T10:38:40.114Z,99515.03
2023-04-15T10:44:09.487Z,99520.50
2023-04-15T10:49:32.758Z,99513.38
2023-04-15T11:00:22.548Z,99512.53
2023-04-15T11:05:45.792Z,99522.94
2023-04-15T11:10:52.836Z,99521.38
2023-04-15T11:23:15.361Z,99542.44
2023-04-15T11:42:03.057Z,99562.81
2023-04-15T11:47:23.346Z,99560.34
2023-04-15T11:57:51.547Z,99575.84
2023-04-15T12:03:30.417Z,99571.59
2023-04-15T12:08:51.138Z,99575.47
2023-04-15T12:14:20.919Z,99585.69
2023-04-15T12:19:36.079Z,99587.38
2023-04-15T12:24:38.747Z,99612.75
2023-04-15T12:30:11.999Z,99620.59
2023-04-15T12:35:17.965Z,99621.69
2023-04-15T12:53:16.609Z,99629.56
2023-04-15T12:58:43.331Z,99643.63
2023-04-15T13:03:51.284Z,99644.25
2023-04-15T13:09:23.263Z,99645.38
2023-04-15T13:14:25.022Z,99654.66
2023-04-15T13:19:26.782Z,99653.50
2023-04-15T13:24:28.460Z,99663.72
2023-04-15T13:35:06.471Z,99676.44
2023-04-15T13:40:45.457Z,99672.44
2023-04-15T13:45:51.718Z,99687.31
2023-04-15T13:50:53.299Z,99683.66
2023-04-15T13:55:54.868Z,99695.88
2023-04-15T14:00:57.043Z,99698.25
2023-04-15T14:05:59.498Z,99700.56
2023-04-15T14:11:01.314Z,99708.44
2023-04-15T14:16:05.903Z,99718.63
2023-04-15T14:34:23.801Z,99738.72
2023-04-15T15:06:08.983Z,99775.59
2023-04-15T15:11:21.019Z,99773.22
2023-04-15T15:16:24.491Z,99779.25
2023-04-15T15:40:35.592Z,99807.75
2023-04-15T15:45:47.264Z,99816.41
2023-04-15T15:51:09.133Z,99820.50
2023-04-15T15:56:10.776Z,99835.72
2023-04-15T16:01:12.248Z,99833.94
2023-04-15T16:06:13.711Z,99836.56
2023-04-15T16:11:15.348Z,99847.63
2023-04-15T16:16:16.836Z,99840.84
2023-04-15T16:21:19.464Z,99846.91
2023-04-15T16:26:20.913Z,99847.91
2023-04-15T16:31:22.364Z,99857.94
2023-04-15T16:36:23.956Z,99859.81
2023-04-15T16:41:25.467Z,99859.91
2023-04-15T16:46:27.067Z,99866.16
2023-04-15T16:51:30.476Z,99880.22
2023-04-15T16:56:31.928Z,99879.44
2023-04-15T17:01:33.430Z,99884.47
2023-04-15T17:06:35.027Z,99900.59
2023-04-15T17:11:38.660Z,99904.97
2023-04-15T17:16:40.291Z,99913.19
2023-04-15T17:21:41.910Z,99916.00
2023-04-15T17:26:43.738Z,99918.41
2023-04-15T17:31:45.406Z,99931.50
2023-04-15T17:36:47.880Z,99931.66
2023-04-15T17:41:49.309Z,99938.19
2023-04-15T17:46:50.912Z,99947.06
2023-04-15T17:51:54.790Z,99954.28
2023-04-15T17:56:56.800Z,99958.63
2023-04-15T18:01:58.513Z,99956.47
2023-04-15T18:07:00.140Z,99970.16
2023-04-15T18:12:02.158Z,99977.53
2023-04-15T18:17:03.797Z,99986.25
2023-04-15T18:22:05.476Z,99989.75
2023-04-15T18:27:06.952Z,100000.66
2023-04-15T18:32:08.406Z,100006.84
2023-04-15T18:37:09.966Z,100011.19
2023-04-15T18:42:11.564Z,100021.75
2023-04-15T18:47:13.374Z,100027.28
2023-04-15T18:52:14.941Z,100029.84
2023-04-15T18:57:22.809Z,100032.19
2023-04-15T19:02:30.253Z,100041.94
2023-04-15T19:07:31.771Z,100048.38
2023-04-15T19:12:33.420Z,100056.22
2023-04-15T19:17:34.935Z,100052.53
2023-04-15T19:22:36.831Z,100064.03
2023-04-15T19:27:38.403Z,100069.84
2023-04-15T19:32:42.372Z,100077.53
2023-04-15T19:37:47.695Z,100076.19
2023-04-15T19:42:49.161Z,100086.56
2023-04-15T19:47:50.891Z,100089.41
2023-04-15T19:52:52.884Z,100091.25
2023-04-15T19:57:54.511Z,100102.94
2023-04-15T20:02:56.515Z,100101.34
2023-04-15T20:07:59.822Z,100111.06
2023-04-15T20:13:01.581Z,100111.66
2023-04-15T20:18:03.225Z,100109.84
2023-04-15T20:23:04.830Z,100116.81
2023-04-15T20:28:06.194Z,100123.91
2023-04-15T20:33:08.050Z,100131.34
2023-04-15T20:38:09.604Z,100151.34
2023-04-15T20:43:11.264Z,100139.41
2023-04-15T20:48:12.801Z,100143.69
2023-04-15T20:53:14.444Z,100154.97
2023-04-15T20:58:16.032Z,100149.78
2023-04-15T21:03:17.626Z,100149.66
2023-04-15T21:08:20.301Z,100160.41
2023-04-15T21:13:22.545Z,100167.72
2023-04-15T21:18:24.040Z,100171.91
2023-04-15T21:23:26.147Z,100175.75
2023-04-15T21:28:30.904Z,100185.31
2023-04-15T21:33:32.340Z,100187.84
2023-04-15T21:38:33.989Z,100196.59
2023-04-15T21:43:38.390Z,100201.66
2023-04-15T21:48:39.925Z,100200.84
2023-04-15T21:53:41.345Z,100209.13
2023-04-15T21:58:42.969Z,100207.59
2023-04-15T22:03:44.868Z,100206.03
2023-04-15T22:08:56.195Z,100214.63
2023-04-15T22:13:59.355Z,100220.81
2023-04-15T22:19:02.582Z,100231.59
2023-04-15T22:24:32.593Z,100238.22
2023-04-15T22:29:26.120Z,100243.69
2023-04-15T22:34:27.568Z,100244.84
2023-04-15T22:39:29.014Z,100241.88
2023-04-15T22:44:30.447Z,100245.66
2023-04-15T22:49:31.933Z,100261.53
2023-04-15T22:54:33.366Z,100262.38
2023-04-15T22:59:34.788Z,100266.31
2023-04-15T23:04:36.369Z,100265.47
2023-04-15T23:09:39.217Z,100270.94
2023-04-15T23:14:40.689Z,100272.22
2023-04-15T23:19:42.132Z,100274.16
2023-04-15T23:24:43.548Z,100274.47
2023-04-15T23:29:45.104Z,100287.94
2023-04-15T23:34:46.528Z,100280.06
2023-04-15T23:39:47.974Z,100282.31
2023-04-15T23:44:49.464Z,100290.56
2023-04-15T23:49:50.906Z,100280.47
2023-04-15T23:54:52.376Z,100278.91
2023-04-15T23:59:53.882Z,100289.13
